Pagrindinis puslapis
METAR-TAF:

METAR-TAF

Oro uostai :

Epinalis, Prancūzija

platuma: 48-19-31N, ilguma: 6-04-00E, Aukštis: 330 m

Dabartinis oras

Ataskaita buvo paskelbta 23 minutes, ne 03:00 UTC
Vėjas 18 kt iš Vakarų/Pietvakarių
Temperatūra 9°C
Drėgmė 87%
Slėgis 1018 hPa
Matomumas: 7000 m
Mažai debesys ne aukštis 1900 ft
Su prošvaistėmis ne aukštis 2600 ft
Su prošvaistėmis ne aukštis 3200 ft
lietus

METAR: LFSG 170300Z AUTO 25018KT 7000 -RA FEW019 BKN026 BKN032 09/07 Q1018

Laikas: 04:23 (03:23 UTC)


TAF: trūkstamas

Orai ataskaitas ir orų prognozės (METAR, TAF).

turimą stotys yra geltonos ir raudonos taškus žemėlapyje.

Perkelti pele per norėdami pamatyti stoties vardą.

Tada spustelėkite, norėdami matyti oro stebėjimo ir prognozės.

Norėdami pakeisti žemėlapį: spustelėkite ant žalios mygtukų su juodo kryžiaus žemyn,; žalią mygtuką su brūkšneliu, jei norite nutolinti; arba žalių rodyklių gretimoms žemėlapius.


METAR-TAF: